Kaprifol — 5BXX2 — position and weather

sailwx.info

Track history (hours):
 
Tides and Currents Weather Stations Pressure Air Temp Water Temp Dewpoint Dewpoint Depression Visibility Wind Speed Wind Dir Waves Ship Positions

Kaprifol

Last reported at 2015-Apr-26 15:31 UTC. Time now 2015-Apr-26 15:47 UTC.
Position N 51°05' E 003°44'.

Length 90 m; draft 4.6 m.

Type: Tanker. MMSI: 210445000.

Date/timePositionNaut miles runAvg speedWind from/ knotsBaromVisibWave heightAir tempDewpointWater temp
2015-Apr-26 15:31N 51°05' E 003°44'0 0.0
2015-Apr-26 14:31N 51°05' E 003°44'0 0.0
2015-Apr-26 13:31N 51°05' E 003°44'0 0.0
2015-Apr-26 12:28N 51°05' E 003°44'0 0.0
2015-Apr-26 11:28N 51°05' E 003°44'0 0.0
2015-Apr-26 10:31N 51°05' E 003°44'0 0.0
2015-Apr-26 09:25N 51°05' E 003°44'0 0.0
2015-Apr-26 08:34N 51°05' E 003°44'0 0.0
2015-Apr-26 07:34N 51°05' E 003°44'0 0.0
2015-Apr-26 06:33N 51°05' E 003°44'0 0.0
2015-Apr-26 05:34N 51°05' E 003°44'0 0.0
2015-Apr-26 04:33N 51°05' E 003°44'3 2.9
2015-Apr-26 03:33N 51°08' E 003°46'9 8.6
2015-Apr-26 02:33N 51°16' E 003°50'4 4.2
2015-Apr-26 01:33N 51°20' E 003°49'8 8.3
2015-Apr-26 00:33N 51°25' E 003°38'1010.1
2015-Apr-25 23:33N 51°24' E 003°22'1110.2
2015-Apr-25 22:30N 51°24' E 003°05'1111.4
2015-Apr-25 21:33N 51°24' E 002°47'5 4.4
2015-Apr-25 20:32N 51°27' E 002°41'2 1.7
2015-Apr-25 19:29N 51°27' E 002°44'7 7.3
2015-Apr-25 18:33N 51°22' E 002°37'7 6.9
2015-Apr-25 17:33N 51°21' E 002°26'1211.5
2015-Apr-25 16:33N 51°15' E 002°10'1211.6
2015-Apr-25 15:33N 51°09' E 001°54'1111.5
2015-Apr-25 14:33N 51°02' E 001°41'1110.9
2015-Apr-25 13:32N 50°53' E 001°29'  
2015-Apr-20 18:33N 49°57' W 002°60'1010.0
2015-Apr-20 17:33N 49°60' W 002°45'3113.1
2015-Apr-20 15:14N 50°09' W 001°60'1315.2
2015-Apr-20 14:22N 50°13' W 001°40'2513.5
2015-Apr-20 12:28N 50°19' W 001°02'53 9.0
2015-Apr-20 06:33N 50°34' E 000°19'1212.1
2015-Apr-20 05:33N 50°38' E 000°37'1212.4
2015-Apr-20 04:33N 50°46' E 000°52'2210.8
2015-Apr-20 02:33N 50°60' E 001°19'8 8.4
2015-Apr-20 01:33N 51°05' E 001°29'8 7.7
2015-Apr-20 00:33N 51°10' E 001°38'9 8.8
2015-Apr-19 23:34N 51°17' E 001°48'1111.1
2015-Apr-19 22:33N 51°26' E 001°58'1912.9
2015-Apr-19 21:04N 51°40' E 002°18'3212.1
2015-Apr-19 18:25N 52°01' E 002°58'1111.1
2015-Apr-19 17:24N 52°02' E 003°17'910.3
2015-Apr-19 16:30N 52°03' E 003°31'10 9.7
2015-Apr-19 15:31N 52°03' E 003°47'8 8.4
2015-Apr-19 14:33N 52°01' E 003°60'10 9.9
2015-Apr-19 13:34N 51°55' E 004°13'3 3.0
2015-Apr-19 12:34N 51°52' E 004°14'6 6.2
2015-Apr-19 11:34N 51°51' E 004°24'9 9.3
2015-Apr-19 10:34N 51°47' E 004°38'6 5.4
2015-Apr-19 09:31N 51°41' E 004°35'0 0.0
2015-Apr-19 08:25N 51°41' E 004°35'0 0.0
2015-Apr-19 07:31N 51°41' E 004°35'0 0.0
2015-Apr-19 06:31N 51°41' E 004°35'0 0.0
2015-Apr-19 05:31N 51°41' E 004°35'0 0.0
2015-Apr-19 04:22N 51°41' E 004°35'0 0.0
2015-Apr-19 03:28N 51°41' E 004°35'0 0.0
2015-Apr-19 02:28N 51°41' E 004°35'0 0.0
2015-Apr-19 01:25N 51°41' E 004°35'0 0.0
2015-Apr-19 00:31N 51°41' E 004°35'0 0.0
2015-Apr-18 23:31N 51°41' E 004°35'0 0.0
2015-Apr-18 22:31N 51°41' E 004°35'0 0.0
2015-Apr-18 21:33N 51°41' E 004°35'5 5.4
2015-Apr-18 20:33N 51°47' E 004°38'7 6.7
2015-Apr-18 19:33N 51°50' E 004°28'7 7.2
2015-Apr-18 18:33N 51°54' E 004°18'7 6.9
2015-Apr-18 17:33N 51°58' E 004°09'8 8.1
2015-Apr-18 16:33N 52°00' E 003°56'10 9.7
2015-Apr-18 15:33N 52°02' E 003°41'10 9.4
2015-Apr-18 14:32N 52°09' E 003°31'9 9.1
2015-Apr-18 13:33N 52°18' E 003°30'10 9.2
2015-Apr-18 12:31N 52°28' E 003°31'  
Track history (hours):
 
Tides and Currents Weather Stations Pressure Air Temp Water Temp Dewpoint Dewpoint Depression Visibility Wind Speed Wind Dir Waves Ship Positions

Kaprifol

Last reported at 2015-Apr-26 15:31 UTC. Time now 2015-Apr-26 15:47 UTC.
Position N 51°05' E 003°44'.

Length 90 m; draft 4.6 m.

Type: Tanker. MMSI: 210445000.

Date/timePositionNaut miles runAvg speedWind from/ knotsBaromVisibWave heightAir tempDewpointWater temp
2015-Apr-26 15:31N 51°05' E 003°44'0 0.0
2015-Apr-26 14:31N 51°05' E 003°44'0 0.0
2015-Apr-26 13:31N 51°05' E 003°44'0 0.0
2015-Apr-26 12:28N 51°05' E 003°44'0 0.0
2015-Apr-26 11:28N 51°05' E 003°44'0 0.0
2015-Apr-26 10:31N 51°05' E 003°44'0 0.0
2015-Apr-26 09:25N 51°05' E 003°44'0 0.0
2015-Apr-26 08:34N 51°05' E 003°44'0 0.0
2015-Apr-26 07:34N 51°05' E 003°44'0 0.0
2015-Apr-26 06:33N 51°05' E 003°44'0 0.0
2015-Apr-26 05:34N 51°05' E 003°44'0 0.0
2015-Apr-26 04:33N 51°05' E 003°44'3 2.9
2015-Apr-26 03:33N 51°08' E 003°46'9 8.6
2015-Apr-26 02:33N 51°16' E 003°50'4 4.2
2015-Apr-26 01:33N 51°20' E 003°49'8 8.3
2015-Apr-26 00:33N 51°25' E 003°38'1010.1
2015-Apr-25 23:33N 51°24' E 003°22'1110.2
2015-Apr-25 22:30N 51°24' E 003°05'1111.4
2015-Apr-25 21:33N 51°24' E 002°47'5 4.4
2015-Apr-25 20:32N 51°27' E 002°41'2 1.7
2015-Apr-25 19:29N 51°27' E 002°44'7 7.3
2015-Apr-25 18:33N 51°22' E 002°37'7 6.9
2015-Apr-25 17:33N 51°21' E 002°26'1211.5
2015-Apr-25 16:33N 51°15' E 002°10'1211.6
2015-Apr-25 15:33N 51°09' E 001°54'1111.5
2015-Apr-25 14:33N 51°02' E 001°41'1110.9
2015-Apr-25 13:32N 50°53' E 001°29'  
2015-Apr-20 18:33N 49°57' W 002°60'1010.0
2015-Apr-20 17:33N 49°60' W 002°45'3113.1
2015-Apr-20 15:14N 50°09' W 001°60'1315.2
2015-Apr-20 14:22N 50°13' W 001°40'2513.5
2015-Apr-20 12:28N 50°19' W 001°02'53 9.0
2015-Apr-20 06:33N 50°34' E 000°19'1212.1
2015-Apr-20 05:33N 50°38' E 000°37'1212.4
2015-Apr-20 04:33N 50°46' E 000°52'2210.8
2015-Apr-20 02:33N 50°60' E 001°19'8 8.4
2015-Apr-20 01:33N 51°05' E 001°29'8 7.7
2015-Apr-20 00:33N 51°10' E 001°38'9 8.8
2015-Apr-19 23:34N 51°17' E 001°48'1111.1
2015-Apr-19 22:33N 51°26' E 001°58'1912.9
2015-Apr-19 21:04N 51°40' E 002°18'3212.1
2015-Apr-19 18:25N 52°01' E 002°58'1111.1
2015-Apr-19 17:24N 52°02' E 003°17'910.3
2015-Apr-19 16:30N 52°03' E 003°31'10 9.7
2015-Apr-19 15:31N 52°03' E 003°47'8 8.4
2015-Apr-19 14:33N 52°01' E 003°60'10 9.9
2015-Apr-19 13:34N 51°55' E 004°13'3 3.0
2015-Apr-19 12:34N 51°52' E 004°14'6 6.2
2015-Apr-19 11:34N 51°51' E 004°24'9 9.3
2015-Apr-19 10:34N 51°47' E 004°38'6 5.4
2015-Apr-19 09:31N 51°41' E 004°35'0 0.0
2015-Apr-19 08:25N 51°41' E 004°35'0 0.0
2015-Apr-19 07:31N 51°41' E 004°35'0 0.0
2015-Apr-19 06:31N 51°41' E 004°35'0 0.0
2015-Apr-19 05:31N 51°41' E 004°35'0 0.0
2015-Apr-19 04:22N 51°41' E 004°35'0 0.0
2015-Apr-19 03:28N 51°41' E 004°35'0 0.0
2015-Apr-19 02:28N 51°41' E 004°35'0 0.0
2015-Apr-19 01:25N 51°41' E 004°35'0 0.0
2015-Apr-19 00:31N 51°41' E 004°35'0 0.0
2015-Apr-18 23:31N 51°41' E 004°35'0 0.0
2015-Apr-18 22:31N 51°41' E 004°35'0 0.0
2015-Apr-18 21:33N 51°41' E 004°35'5 5.4
2015-Apr-18 20:33N 51°47' E 004°38'7 6.7
2015-Apr-18 19:33N 51°50' E 004°28'7 7.2
2015-Apr-18 18:33N 51°54' E 004°18'7 6.9
2015-Apr-18 17:33N 51°58' E 004°09'8 8.1
2015-Apr-18 16:33N 52°00' E 003°56'10 9.7
2015-Apr-18 15:33N 52°02' E 003°41'10 9.4
2015-Apr-18 14:32N 52°09' E 003°31'9 9.1
2015-Apr-18 13:33N 52°18' E 003°30'10 9.2
2015-Apr-18 12:31N 52°28' E 003°31'  

Dump ship's entire track history